sensor_id;sensor_type;location;lat;lon;timestamp;pressure;altitude;pressure_sealevel;temperature;humidity
32642;BME280;19323;56.072;9.698;2023-01-29T00:01:45;101479.19;;;25.19;38.63
32642;BME280;19323;56.072;9.698;2023-01-29T00:04:10;101470.41;;;25.17;38.71
32642;BME280;19323;56.072;9.698;2023-01-29T00:06:35;101467.72;;;25.17;38.80
32642;BME280;19323;56.072;9.698;2023-01-29T00:09:00;101464.19;;;25.17;38.75
32642;BME280;19323;56.072;9.698;2023-01-29T00:11:26;101451.63;;;25.17;38.91
32642;BME280;19323;56.072;9.698;2023-01-29T00:13:51;101453.59;;;25.15;38.89
32642;BME280;19323;56.072;9.698;2023-01-29T00:16:16;101453.59;;;25.15;38.59
32642;BME280;19323;56.072;9.698;2023-01-29T00:18:41;101461.66;;;25.15;38.77
32642;BME280;19323;56.072;9.698;2023-01-29T00:21:07;101453.59;;;25.15;38.87
32642;BME280;19323;56.072;9.698;2023-01-29T00:23:33;101459.09;;;25.14;38.73
32642;BME280;19323;56.072;9.698;2023-01-29T00:25:58;101459.09;;;25.14;38.65
32642;BME280;19323;56.072;9.698;2023-01-29T00:28:23;101461.91;;;25.12;38.65
32642;BME280;19323;56.072;9.698;2023-01-29T00:30:49;101461.91;;;25.12;38.60
32642;BME280;19323;56.072;9.698;2023-01-29T00:33:14;101459.22;;;25.12;38.70
32642;BME280;19323;56.072;9.698;2023-01-29T00:35:39;101454.72;;;25.13;38.75
32642;BME280;19323;56.072;9.698;2023-01-29T00:38:05;101451.19;;;25.12;38.65
32642;BME280;19323;56.072;9.698;2023-01-29T00:40:30;101457.53;;;25.11;38.86
32642;BME280;19323;56.072;9.698;2023-01-29T00:43:15;101459.38;;;25.11;38.71
32642;BME280;19323;56.072;9.698;2023-01-29T00:45:59;101459.38;;;25.11;38.75
32642;BME280;19323;56.072;9.698;2023-01-29T00:48:24;101465.59;;;25.11;38.85
32642;BME280;19323;56.072;9.698;2023-01-29T00:50:49;101458.50;;;25.10;38.61
32642;BME280;19323;56.072;9.698;2023-01-29T00:53:15;101449.50;;;25.11;38.76
32642;BME280;19323;56.072;9.698;2023-01-29T00:55:40;101445.09;;;25.10;38.69
32642;BME280;19323;56.072;9.698;2023-01-29T00:58:05;101434.38;;;25.10;38.60
32642;BME280;19323;56.072;9.698;2023-01-29T01:00:30;101429.03;;;25.10;38.54
32642;BME280;19323;56.072;9.698;2023-01-29T01:02:55;101426.34;;;25.10;38.82
32642;BME280;19323;56.072;9.698;2023-01-29T01:05:30;101428.19;;;25.09;38.72
32642;BME280;19323;56.072;9.698;2023-01-29T01:07:56;101422.81;;;25.09;38.56
32642;BME280;19323;56.072;9.698;2023-01-29T01:10:23;101419.31;;;25.09;38.51
32642;BME280;19323;56.072;9.698;2023-01-29T01:15:14;101408.59;;;25.09;38.58
32642;BME280;19323;56.072;9.698;2023-01-29T01:17:39;101394.34;;;25.08;38.63
32642;BME280;19323;56.072;9.698;2023-01-29T01:20:05;101392.50;;;25.09;38.52
32642;BME280;19323;56.072;9.698;2023-01-29T01:22:30;101389.81;;;25.09;38.72
32642;BME280;19323;56.072;9.698;2023-01-29T01:24:56;101376.41;;;25.09;38.52
32642;BME280;19323;56.072;9.698;2023-01-29T01:27:21;101368.38;;;25.09;38.53
32642;BME280;19323;56.072;9.698;2023-01-29T01:29:46;101365.69;;;25.09;38.54
32642;BME280;19323;56.072;9.698;2023-01-29T01:32:12;101364.03;;;25.08;38.84
32642;BME280;19323;56.072;9.698;2023-01-29T01:34:37;101353.28;;;25.08;38.79
32642;BME280;19323;56.072;9.698;2023-01-29T01:37:02;101354.97;;;25.09;38.69
32642;BME280;19323;56.072;9.698;2023-01-29T01:39:28;101347.94;;;25.08;38.43
32642;BME280;19323;56.072;9.698;2023-01-29T01:41:53;101346.22;;;25.07;38.68
32642;BME280;19323;56.072;9.698;2023-01-29T01:47:02;101346.22;;;25.07;38.71
32642;BME280;19323;56.072;9.698;2023-01-29T01:49:27;101346.22;;;25.07;38.64
32642;BME280;19323;56.072;9.698;2023-01-29T01:51:52;101348.91;;;25.07;38.64
32642;BME280;19323;56.072;9.698;2023-01-29T01:54:19;101339.19;;;25.06;38.50
32642;BME280;19323;56.072;9.698;2023-01-29T01:56:47;101341.72;;;25.07;38.46
32642;BME280;19323;56.072;9.698;2023-01-29T01:59:15;101346.22;;;25.07;38.60
32642;BME280;19323;56.072;9.698;2023-01-29T02:01:41;101350.75;;;25.06;38.45
32642;BME280;19323;56.072;9.698;2023-01-29T02:04:13;101340.03;;;25.06;38.60
32642;BME280;19323;56.072;9.698;2023-01-29T02:06:59;101345.53;;;25.05;38.63
32642;BME280;19323;56.072;9.698;2023-01-29T02:12:18;101349.03;;;25.05;38.67
32642;BME280;19323;56.072;9.698;2023-01-29T02:14:44;101342.84;;;25.05;38.55
32642;BME280;19323;56.072;9.698;2023-01-29T02:17:10;101341.16;;;25.04;38.45
32642;BME280;19323;56.072;9.698;2023-01-29T02:27:56;101350.16;;;25.03;38.40
32642;BME280;19323;56.072;9.698;2023-01-29T02:30:27;101346.53;;;25.04;38.57
32642;BME280;19323;56.072;9.698;2023-01-29T02:33:03;101342.13;;;25.03;38.38
32642;BME280;19323;56.072;9.698;2023-01-29T02:35:34;101345.81;;;25.02;38.73
32642;BME280;19323;56.072;9.698;2023-01-29T02:40:32;101350.16;;;25.03;38.64
32642;BME280;19323;56.072;9.698;2023-01-29T02:43:05;101354.69;;;25.02;38.60
32642;BME280;19323;56.072;9.698;2023-01-29T02:45:38;101351.19;;;25.02;38.60
32642;BME280;19323;56.072;9.698;2023-01-29T02:48:05;101356.53;;;25.02;38.51
32642;BME280;19323;56.072;9.698;2023-01-29T02:50:40;101350.31;;;25.01;38.69
32642;BME280;19323;56.072;9.698;2023-01-29T02:53:08;101334.09;;;25.03;38.32
32642;BME280;19323;56.072;9.698;2023-01-29T02:55:37;101314.50;;;25.02;38.60
32642;BME280;19323;56.072;9.698;2023-01-29T02:58:08;101319.97;;;25.01;38.59
32642;BME280;19323;56.072;9.698;2023-01-29T03:00:36;101308.44;;;25.00;38.57
32642;BME280;19323;56.072;9.698;2023-01-29T03:03:05;101288.41;;;24.85;38.42
32642;BME280;19323;56.072;9.698;2023-01-29T03:05:41;101314.63;;;25.01;38.61
32642;BME280;19323;56.072;9.698;2023-01-29T03:08:09;101326.19;;;25.01;38.42
32642;BME280;19323;56.072;9.698;2023-01-29T03:10:39;101319.97;;;25.01;38.49
32642;BME280;19323;56.072;9.698;2023-01-29T03:13:16;101318.16;;;25.01;38.51
32642;BME280;19323;56.072;9.698;2023-01-29T03:15:45;101312.78;;;25.01;38.57
32642;BME280;19323;56.072;9.698;2023-01-29T03:18:16;101331.53;;;25.01;38.52
32642;BME280;19323;56.072;9.698;2023-01-29T03:20:43;101328.88;;;25.01;38.46
32642;BME280;19323;56.072;9.698;2023-01-29T03:23:19;101343.13;;;25.02;38.40
32642;BME280;19323;56.072;9.698;2023-01-29T03:25:49;101328.88;;;25.01;38.50
32642;BME280;19323;56.072;9.698;2023-01-29T03:28:33;101315.47;;;25.01;38.52
32642;BME280;19323;56.072;9.698;2023-01-29T03:31:17;101310.97;;;25.02;38.29
32642;BME280;19323;56.072;9.698;2023-01-29T03:34:12;101298.41;;;25.02;38.47
32642;BME280;19323;56.072;9.698;2023-01-29T03:36:55;101313.66;;;25.02;38.46
32642;BME280;19323;56.072;9.698;2023-01-29T03:39:23;101291.34;;;25.01;38.47
32642;BME280;19323;56.072;9.698;2023-01-29T03:47:33;101303.78;;;25.02;38.22
32642;BME280;19323;56.072;9.698;2023-01-29T03:50:06;101293.88;;;25.03;38.30
32642;BME280;19323;56.072;9.698;2023-01-29T03:52:48;101281.50;;;25.02;38.29
32642;BME280;19323;56.072;9.698;2023-01-29T03:55:29;101285.84;;;25.03;38.40
32642;BME280;19323;56.072;9.698;2023-01-29T03:58:08;101286.69;;;25.03;38.33
32642;BME280;19323;56.072;9.698;2023-01-29T04:00:37;101290.25;;;25.04;38.26
32642;BME280;19323;56.072;9.698;2023-01-29T04:03:09;101288.41;;;25.04;38.02
32642;BME280;19323;56.072;9.698;2023-01-29T04:05:42;101289.22;;;25.05;38.21
32642;BME280;19323;56.072;9.698;2023-01-29T04:08:09;101260.75;;;25.04;38.29
32642;BME280;19323;56.072;9.698;2023-01-29T04:10:36;101256.22;;;25.04;38.26
32642;BME280;19323;56.072;9.698;2023-01-29T04:13:04;101268.63;;;25.05;38.11
32642;BME280;19323;56.072;9.698;2023-01-29T04:15:31;101278.50;;;25.05;38.10
32642;BME280;19323;56.072;9.698;2023-01-29T04:17:58;101275.84;;;25.05;38.07
32642;BME280;19323;56.072;9.698;2023-01-29T04:20:24;101271.47;;;25.04;38.26
32642;BME280;19323;56.072;9.698;2023-01-29T04:22:49;101265.13;;;25.05;38.05
32642;BME280;19323;56.072;9.698;2023-01-29T04:25:19;101261.47;;;25.06;38.17
32642;BME280;19323;56.072;9.698;2023-01-29T04:30:19;101235.63;;;25.05;38.00
32642;BME280;19323;56.072;9.698;2023-01-29T04:33:03;101224.06;;;25.04;38.17
32642;BME280;19323;56.072;9.698;2023-01-29T04:35:35;101231.97;;;25.06;38.06
32642;BME280;19323;56.072;9.698;2023-01-29T04:38:11;101230.28;;;25.05;37.92
32642;BME280;19323;56.072;9.698;2023-01-29T04:43:24;101220.56;;;25.04;38.15
32642;BME280;19323;56.072;9.698;2023-01-29T04:49:12;101216.88;;;25.05;37.95
32642;BME280;19323;56.072;9.698;2023-01-29T04:51:18;101209.66;;;25.05;38.08
32642;BME280;19323;56.072;9.698;2023-01-29T04:53:50;101204.31;;;25.05;37.84
32642;BME280;19323;56.072;9.698;2023-01-29T04:58:56;101215.91;;;25.06;38.03
32642;BME280;19323;56.072;9.698;2023-01-29T05:01:23;101223.94;;;25.06;38.06
32642;BME280;19323;56.072;9.698;2023-01-29T05:03:53;101222.94;;;25.07;38.05
32642;BME280;19323;56.072;9.698;2023-01-29T05:06:19;101212.22;;;25.07;37.81
32642;BME280;19323;56.072;9.698;2023-01-29T05:08:45;101201.50;;;25.07;37.90
32642;BME280;19323;56.072;9.698;2023-01-29T05:11:11;101196.97;;;25.07;37.98
32642;BME280;19323;56.072;9.698;2023-01-29T05:13:38;101187.13;;;25.08;38.00
32642;BME280;19323;56.072;9.698;2023-01-29T05:16:11;101176.53;;;25.06;37.98
32642;BME280;19323;56.072;9.698;2023-01-29T05:18:38;101163.97;;;25.07;37.82
32642;BME280;19323;56.072;9.698;2023-01-29T05:21:05;101161.28;;;25.07;37.96
32642;BME280;19323;56.072;9.698;2023-01-29T05:23:31;101163.13;;;25.06;37.80
32642;BME280;19323;56.072;9.698;2023-01-29T05:25:56;101151.56;;;25.06;38.05
32642;BME280;19323;56.072;9.698;2023-01-29T05:28:22;101151.56;;;25.06;38.03
32642;BME280;19323;56.072;9.698;2023-01-29T05:30:48;101143.53;;;25.06;37.82
32642;BME280;19323;56.072;9.698;2023-01-29T05:33:16;101139.97;;;25.05;37.96
32642;BME280;19323;56.072;9.698;2023-01-29T05:35:41;101131.94;;;25.05;37.92
32642;BME280;19323;56.072;9.698;2023-01-29T05:38:07;101117.72;;;25.05;37.91
32642;BME280;19323;56.072;9.698;2023-01-29T05:40:32;101118.53;;;25.05;37.80
32642;BME280;19323;56.072;9.698;2023-01-29T05:42:57;101116.31;;;25.01;37.81
32642;BME280;19323;56.072;9.698;2023-01-29T05:45:23;101111.50;;;25.04;37.86
32642;BME280;19323;56.072;9.698;2023-01-29T05:47:48;101108.00;;;25.04;37.72
32642;BME280;19323;56.072;9.698;2023-01-29T05:50:13;101109.66;;;25.05;37.74
32642;BME280;19323;56.072;9.698;2023-01-29T05:52:39;101114.19;;;25.04;37.90
32642;BME280;19323;56.072;9.698;2023-01-29T05:55:05;101123.06;;;25.05;37.69
32642;BME280;19323;56.072;9.698;2023-01-29T05:57:30;101112.34;;;25.05;37.73
32642;BME280;19323;56.072;9.698;2023-01-29T05:59:55;101116.88;;;25.04;37.61
32642;BME280;19323;56.072;9.698;2023-01-29T06:02:20;101095.44;;;25.04;37.75
32642;BME280;19323;56.072;9.698;2023-01-29T06:04:46;101086.38;;;25.05;37.76
32642;BME280;19323;56.072;9.698;2023-01-29T06:07:11;101097.09;;;25.05;37.62
32642;BME280;19323;56.072;9.698;2023-01-29T06:09:36;101081.03;;;25.05;37.48
32642;BME280;19323;56.072;9.698;2023-01-29T06:12:01;101064.94;;;25.05;37.57
32642;BME280;19323;56.072;9.698;2023-01-29T06:14:27;101078.34;;;25.05;37.57
32642;BME280;19323;56.072;9.698;2023-01-29T06:16:52;101097.97;;;25.06;37.73
32642;BME280;19323;56.072;9.698;2023-01-29T06:19:17;101108.69;;;25.06;37.72
32642;BME280;19323;56.072;9.698;2023-01-29T06:21:42;101106.00;;;25.06;37.55
32642;BME280;19323;56.072;9.698;2023-01-29T06:24:08;101076.59;;;24.86;37.58
32642;BME280;19323;56.072;9.698;2023-01-29T06:26:33;101105.00;;;25.07;37.59
32642;BME280;19323;56.072;9.698;2023-01-29T06:28:58;101108.69;;;25.06;37.62
32642;BME280;19323;56.072;9.698;2023-01-29T06:31:23;101109.53;;;25.06;37.64
32642;BME280;19323;56.072;9.698;2023-01-29T06:33:48;101106.72;;;25.08;37.65
32642;BME280;19323;56.072;9.698;2023-01-29T06:36:14;101110.38;;;25.07;37.65
32642;BME280;19323;56.072;9.698;2023-01-29T06:38:39;101109.53;;;25.06;37.79
32642;BME280;19323;56.072;9.698;2023-01-29T06:41:11;101118.53;;;25.05;37.83
32642;BME280;19323;56.072;9.698;2023-01-29T06:43:37;101119.41;;;25.06;37.57
32642;BME280;19323;56.072;9.698;2023-01-29T06:46:02;101103.47;;;25.04;37.75
32642;BME280;19323;56.072;9.698;2023-01-29T06:48:27;101102.31;;;25.07;37.71
32642;BME280;19323;56.072;9.698;2023-01-29T06:50:52;101103.16;;;25.07;37.69
32642;BME280;19323;56.072;9.698;2023-01-29T06:53:20;101099.66;;;25.07;37.74
32642;BME280;19323;56.072;9.698;2023-01-29T06:55:52;101090.63;;;25.08;37.70
32642;BME280;19323;56.072;9.698;2023-01-29T06:58:17;101090.63;;;25.08;37.69
32642;BME280;19323;56.072;9.698;2023-01-29T07:00:42;101098.66;;;25.08;37.64
32642;BME280;19323;56.072;9.698;2023-01-29T07:03:07;101096.81;;;25.08;37.45
32642;BME280;19323;56.072;9.698;2023-01-29T07:05:33;101105.00;;;25.07;37.76
32642;BME280;19323;56.072;9.698;2023-01-29T07:07:58;101114.88;;;25.06;37.76
32642;BME280;19323;56.072;9.698;2023-01-29T07:10:23;101105.00;;;25.07;37.67
32642;BME280;19323;56.072;9.698;2023-01-29T07:12:48;101096.97;;;25.07;37.43
32642;BME280;19323;56.072;9.698;2023-01-29T07:15:13;101094.28;;;25.07;37.65
32642;BME280;19323;56.072;9.698;2023-01-29T07:17:43;101088.09;;;25.06;37.82
32642;BME280;19323;56.072;9.698;2023-01-29T07:20:08;101089.75;;;25.07;37.51
32642;BME280;19323;56.072;9.698;2023-01-29T07:22:34;101078.22;;;25.07;37.71
32642;BME280;19323;56.072;9.698;2023-01-29T07:24:59;101072.84;;;25.07;37.63
32642;BME280;19323;56.072;9.698;2023-01-29T07:27:24;101055.09;;;25.06;37.48
32642;BME280;19323;56.072;9.698;2023-01-29T07:29:49;101056.75;;;25.07;37.63
32642;BME280;19323;56.072;9.698;2023-01-29T07:32:14;101056.75;;;25.07;37.62
32642;BME280;19323;56.072;9.698;2023-01-29T07:34:39;101048.72;;;25.07;37.54
32642;BME280;19323;56.072;9.698;2023-01-29T07:37:05;101046.75;;;25.09;37.54
32642;BME280;19323;56.072;9.698;2023-01-29T07:39:30;101049.41;;;25.09;37.61
32642;BME280;19323;56.072;9.698;2023-01-29T07:41:55;101046.59;;;25.11;37.67
32642;BME280;19323;56.072;9.698;2023-01-29T07:44:20;101036.72;;;25.11;37.83
32642;BME280;19323;56.072;9.698;2023-01-29T07:46:45;101026.84;;;25.12;37.69
32642;BME280;19323;56.072;9.698;2023-01-29T07:49:10;101016.94;;;25.12;37.68
32642;BME280;19323;56.072;9.698;2023-01-29T07:51:36;101015.97;;;25.13;37.72
32642;BME280;19323;56.072;9.698;2023-01-29T07:54:01;101008.75;;;25.14;37.82
32642;BME280;19323;56.072;9.698;2023-01-29T07:56:26;100984.50;;;25.15;37.81
32642;BME280;19323;56.072;9.698;2023-01-29T07:58:51;100979.28;;;25.14;37.91
32642;BME280;19323;56.072;9.698;2023-01-29T08:01:16;100977.59;;;25.13;37.91
32642;BME280;19323;56.072;9.698;2023-01-29T08:03:42;100971.38;;;25.12;37.71
32642;BME280;19323;56.072;9.698;2023-01-29T08:06:07;100970.53;;;25.12;37.83
32642;BME280;19323;56.072;9.698;2023-01-29T08:08:32;100969.72;;;25.11;38.06
32642;BME280;19323;56.072;9.698;2023-01-29T08:10:59;100918.44;;;24.78;37.75
32642;BME280;19323;56.072;9.698;2023-01-29T08:13:24;100977.19;;;25.07;38.05
32642;BME280;19323;56.072;9.698;2023-01-29T08:15:50;100971.00;;;25.07;38.02
32642;BME280;19323;56.072;9.698;2023-01-29T08:18:15;100966.47;;;25.07;38.13
32642;BME280;19323;56.072;9.698;2023-01-29T08:20:40;100965.31;;;25.10;38.38
32642;BME280;19323;56.072;9.698;2023-01-29T08:23:06;100975.06;;;25.11;38.33
32642;BME280;19323;56.072;9.698;2023-01-29T08:25:32;100979.41;;;25.12;38.30
32642;BME280;19323;56.072;9.698;2023-01-29T08:27:58;100975.75;;;25.13;38.33
32642;BME280;19323;56.072;9.698;2023-01-29T08:30:24;100974.75;;;25.14;38.52
32642;BME280;19323;56.072;9.698;2023-01-29T08:32:49;100980.13;;;25.14;38.44
32642;BME280;19323;56.072;9.698;2023-01-29T08:35:15;100981.97;;;25.14;38.49
32642;BME280;19323;56.072;9.698;2023-01-29T08:37:40;100976.59;;;25.14;38.70
32642;BME280;19323;56.072;9.698;2023-01-29T08:40:05;100963.19;;;25.14;38.49
32642;BME280;19323;56.072;9.698;2023-01-29T08:42:33;100948.97;;;25.13;38.66
32642;BME280;19323;56.072;9.698;2023-01-29T08:44:58;100960.66;;;25.12;38.61
32642;BME280;19323;56.072;9.698;2023-01-29T08:47:23;100957.97;;;25.12;38.58
32642;BME280;19323;56.072;9.698;2023-01-29T08:49:48;100945.59;;;25.11;38.76
32642;BME280;19323;56.072;9.698;2023-01-29T08:52:13;100949.25;;;25.10;38.72
32642;BME280;19323;56.072;9.698;2023-01-29T08:54:39;100952.09;;;25.08;38.58
32642;BME280;19323;56.072;9.698;2023-01-29T08:57:04;100951.09;;;25.09;38.75
32642;BME280;19323;56.072;9.698;2023-01-29T08:59:29;100941.38;;;25.08;38.48
32642;BME280;19323;56.072;9.698;2023-01-29T09:01:54;100939.69;;;25.07;38.28
32642;BME280;19323;56.072;9.698;2023-01-29T09:04:19;100945.22;;;25.06;38.12
32642;BME280;19323;56.072;9.698;2023-01-29T09:06:44;100940.00;;;25.04;38.09
32642;BME280;19323;56.072;9.698;2023-01-29T09:09:10;100948.16;;;25.03;38.01
32642;BME280;19323;56.072;9.698;2023-01-29T09:11:35;100950.00;;;25.02;38.21
32642;BME280;19323;56.072;9.698;2023-01-29T09:14:02;100958.88;;;25.03;38.11
32642;BME280;19323;56.072;9.698;2023-01-29T09:16:27;100962.25;;;25.05;38.23
32642;BME280;19323;56.072;9.698;2023-01-29T09:18:52;100951.53;;;25.05;37.76
32642;BME280;19323;56.072;9.698;2023-01-29T09:21:17;100955.22;;;25.04;37.89
32642;BME280;19323;56.072;9.698;2023-01-29T09:23:43;100942.53;;;25.06;37.78
32642;BME280;19323;56.072;9.698;2023-01-29T09:26:08;100947.03;;;25.05;37.85
32642;BME280;19323;56.072;9.698;2023-01-29T09:28:33;100947.88;;;25.06;37.93
32642;BME280;19323;56.072;9.698;2023-01-29T09:31:01;100946.88;;;25.07;37.86
32642;BME280;19323;56.072;9.698;2023-01-29T09:33:26;100954.91;;;25.07;37.72
32642;BME280;19323;56.072;9.698;2023-01-29T09:35:52;100954.91;;;25.07;37.48
32642;BME280;19323;56.072;9.698;2023-01-29T09:38:17;100953.06;;;25.07;37.41
32642;BME280;19323;56.072;9.698;2023-01-29T09:43:17;100953.94;;;25.08;37.36
32642;BME280;19323;56.072;9.698;2023-01-29T09:45:52;100948.41;;;25.09;37.34
32642;BME280;19323;56.072;9.698;2023-01-29T09:48:19;100941.38;;;25.08;37.37
32642;BME280;19323;56.072;9.698;2023-01-29T09:50:46;100940.38;;;25.09;37.61
32642;BME280;19323;56.072;9.698;2023-01-29T09:53:29;100923.81;;;25.14;37.71
32642;BME280;19323;56.072;9.698;2023-01-29T09:56:01;100911.69;;;25.20;37.50
32642;BME280;19323;56.072;9.698;2023-01-29T09:58:31;100909.56;;;25.23;37.47
32642;BME280;19323;56.072;9.698;2023-01-29T10:03:44;100901.22;;;25.26;36.73
32642;BME280;19323;56.072;9.698;2023-01-29T10:11:31;100904.56;;;25.28;37.04
32642;BME280;19323;56.072;9.698;2023-01-29T10:14:06;100899.22;;;25.28;37.22
32642;BME280;19323;56.072;9.698;2023-01-29T10:19:48;100883.59;;;25.24;37.22
32642;BME280;19323;56.072;9.698;2023-01-29T10:24:32;100881.38;;;25.19;37.33
32642;BME280;19323;56.072;9.698;2023-01-29T10:27:00;100870.78;;;25.18;37.59
32642;BME280;19323;56.072;9.698;2023-01-29T10:29:26;100863.75;;;25.17;37.56
32642;BME280;19323;56.072;9.698;2023-01-29T10:31:53;100854.13;;;25.14;37.61
32642;BME280;19323;56.072;9.698;2023-01-29T10:34:26;100841.75;;;25.13;37.58
32642;BME280;19323;56.072;9.698;2023-01-29T10:36:54;100832.19;;;25.11;37.53
32642;BME280;19323;56.072;9.698;2023-01-29T10:39:21;100831.19;;;25.12;37.64
32642;BME280;19323;56.072;9.698;2023-01-29T10:41:56;100830.34;;;25.11;37.44
32642;BME280;19323;56.072;9.698;2023-01-29T10:47:16;100814.41;;;25.09;37.68
32642;BME280;19323;56.072;9.698;2023-01-29T10:55:02;100799.16;;;25.10;37.51
32642;BME280;19323;56.072;9.698;2023-01-29T11:00:24;100791.13;;;25.10;37.41
32642;BME280;19323;56.072;9.698;2023-01-29T11:02:51;100777.72;;;25.10;37.69
32642;BME280;19323;56.072;9.698;2023-01-29T11:05:18;100772.34;;;25.10;37.64
32642;BME280;19323;56.072;9.698;2023-01-29T11:07:44;100770.53;;;25.11;37.45
32642;BME280;19323;56.072;9.698;2023-01-29T11:10:10;100763.19;;;25.13;37.62
32642;BME280;19323;56.072;9.698;2023-01-29T11:12:37;100754.97;;;25.14;37.37
32642;BME280;19323;56.072;9.698;2023-01-29T11:15:04;100743.28;;;25.15;37.20
32642;BME280;19323;56.072;9.698;2023-01-29T11:17:31;100736.91;;;25.16;37.38
32642;BME280;19323;56.072;9.698;2023-01-29T11:19:56;100735.91;;;25.17;37.26
32642;BME280;19323;56.072;9.698;2023-01-29T11:22:22;100729.72;;;25.17;37.31
32642;BME280;19323;56.072;9.698;2023-01-29T11:25:09;100725.00;;;25.19;36.92
32642;BME280;19323;56.072;9.698;2023-01-29T11:27:34;100721.25;;;25.21;37.23
32642;BME280;19323;56.072;9.698;2023-01-29T11:30:03;100720.22;;;25.22;37.26
32642;BME280;19323;56.072;9.698;2023-01-29T11:32:31;100710.34;;;25.23;36.92
32642;BME280;19323;56.072;9.698;2023-01-29T11:35:02;100711.88;;;25.25;37.04
32642;BME280;19323;56.072;9.698;2023-01-29T11:39:58;100695.63;;;25.27;36.97
32642;BME280;19323;56.072;9.698;2023-01-29T11:42:23;100688.41;;;25.27;37.08
32642;BME280;19323;56.072;9.698;2023-01-29T11:44:51;100686.59;;;25.28;36.95
32642;BME280;19323;56.072;9.698;2023-01-29T11:47:26;100690.94;;;25.29;36.99
32642;BME280;19323;56.072;9.698;2023-01-29T11:49:53;100674.72;;;25.31;36.88
32642;BME280;19323;56.072;9.698;2023-01-29T11:52:20;100672.88;;;25.31;36.63
32642;BME280;19323;56.072;9.698;2023-01-29T11:54:50;100671.88;;;25.32;36.67
32642;BME280;19323;56.072;9.698;2023-01-29T11:57:27;100670.72;;;25.35;36.74
32642;BME280;19323;56.072;9.698;2023-01-29T11:59:54;100664.34;;;25.36;36.64
32642;BME280;19323;56.072;9.698;2023-01-29T12:05:31;100656.97;;;25.38;36.56
32642;BME280;19323;56.072;9.698;2023-01-29T12:07:53;100656.97;;;25.38;36.70
32642;BME280;19323;56.072;9.698;2023-01-29T12:13:03;100645.09;;;25.40;36.30
32642;BME280;19323;56.072;9.698;2023-01-29T12:15:28;100626.16;;;25.42;36.48
32642;BME280;19323;56.072;9.698;2023-01-29T12:18:04;100641.25;;;25.43;36.17
32642;BME280;19323;56.072;9.698;2023-01-29T12:20:37;100629.53;;;25.44;36.26
32642;BME280;19323;56.072;9.698;2023-01-29T12:28:22;100608.91;;;25.44;36.42
32642;BME280;19323;56.072;9.698;2023-01-29T12:36:44;100605.06;;;25.47;36.40
32642;BME280;19323;56.072;9.698;2023-01-29T12:39:16;100587.97;;;25.48;36.21
32642;BME280;19323;56.072;9.698;2023-01-29T12:41:44;100583.44;;;25.48;36.43
32642;BME280;19323;56.072;9.698;2023-01-29T12:44:15;100591.34;;;25.50;36.20
32642;BME280;19323;56.072;9.698;2023-01-29T12:46:44;100594.03;;;25.50;36.24
32642;BME280;19323;56.072;9.698;2023-01-29T12:49:14;100585.81;;;25.52;36.08
32642;BME280;19323;56.072;9.698;2023-01-29T12:51:47;100572.25;;;25.53;36.13
32642;BME280;19323;56.072;9.698;2023-01-29T12:54:17;100581.97;;;25.54;35.90
32642;BME280;19323;56.072;9.698;2023-01-29T12:56:48;100588.16;;;25.55;36.23
32642;BME280;19323;56.072;9.698;2023-01-29T12:59:30;100571.25;;;25.54;36.13
32642;BME280;19323;56.072;9.698;2023-01-29T13:02:05;100563.22;;;25.54;35.92
32642;BME280;19323;56.072;9.698;2023-01-29T13:04:38;100546.25;;;25.54;36.01
32642;BME280;19323;56.072;9.698;2023-01-29T13:07:09;100549.78;;;25.54;36.02
32642;BME280;19323;56.072;9.698;2023-01-29T13:09:37;100540.41;;;25.50;35.87
32642;BME280;19323;56.072;9.698;2023-01-29T13:12:06;100541.91;;;25.53;36.11
32642;BME280;19323;56.072;9.698;2023-01-29T13:14:41;100541.75;;;25.54;35.89
32642;BME280;19323;56.072;9.698;2023-01-29T13:17:15;100536.88;;;25.58;36.02
32642;BME280;19323;56.072;9.698;2023-01-29T13:19:42;100529.03;;;25.56;36.06
32642;BME280;19323;56.072;9.698;2023-01-29T13:22:14;100529.69;;;25.58;36.07
32642;BME280;19323;56.072;9.698;2023-01-29T13:24:41;100536.72;;;25.59;36.04
32642;BME280;19323;56.072;9.698;2023-01-29T13:27:11;100532.88;;;25.62;35.80
32642;BME280;19323;56.072;9.698;2023-01-29T13:29:42;100526.50;;;25.63;35.99
32642;BME280;19323;56.072;9.698;2023-01-29T13:32:08;100534.38;;;25.64;36.08
32642;BME280;19323;56.072;9.698;2023-01-29T13:34:35;100523.50;;;25.66;35.95
32642;BME280;19323;56.072;9.698;2023-01-29T13:37:02;100511.94;;;25.65;35.94
32642;BME280;19323;56.072;9.698;2023-01-29T13:39:28;100510.09;;;25.66;35.86
32642;BME280;19323;56.072;9.698;2023-01-29T13:41:54;100498.34;;;25.67;35.68
32642;BME280;19323;56.072;9.698;2023-01-29T13:44:22;100481.25;;;25.68;35.99
32642;BME280;19323;56.072;9.698;2023-01-29T13:46:49;100489.81;;;25.72;35.64
32642;BME280;19323;56.072;9.698;2023-01-29T13:49:21;100488.78;;;25.73;35.64
32642;BME280;19323;56.072;9.698;2023-01-29T13:51:48;100468.16;;;25.73;35.73
32642;BME280;19323;56.072;9.698;2023-01-29T13:54:15;100469.66;;;25.76;35.42
32642;BME280;19323;56.072;9.698;2023-01-29T13:56:55;100464.97;;;25.78;35.71
32642;BME280;19323;56.072;9.698;2023-01-29T13:59:24;100461.31;;;25.79;35.50
32642;BME280;19323;56.072;9.698;2023-01-29T14:02:18;100447.75;;;25.80;35.51
32642;BME280;19323;56.072;9.698;2023-01-29T14:04:44;100448.72;;;25.79;35.40
32642;BME280;19323;56.072;9.698;2023-01-29T14:10:13;100441.50;;;25.80;35.27
32642;BME280;19323;56.072;9.698;2023-01-29T14:12:39;100439.84;;;25.79;35.45
32642;BME280;19323;56.072;9.698;2023-01-29T14:15:15;100439.00;;;25.78;35.48
32642;BME280;19323;56.072;9.698;2023-01-29T14:17:52;100427.44;;;25.78;35.59
32642;BME280;19323;56.072;9.698;2023-01-29T14:20:18;100432.78;;;25.78;35.69